createdAt,value
2022-10-01T00:01:19.569Z,2.95
2022-10-01T00:03:48.005Z,2.97
2022-10-01T00:06:21.298Z,6.60
2022-10-01T00:08:49.989Z,5.07
2022-10-01T00:11:20.943Z,5.82
2022-10-01T00:13:48.591Z,3.00
2022-10-01T00:16:18.712Z,5.13
2022-10-01T00:18:47.266Z,3.42
2022-10-01T00:21:18.046Z,4.63
2022-10-01T00:23:46.343Z,5.20
2022-10-01T00:26:13.931Z,5.80
2022-10-01T00:28:42.898Z,5.13
2022-10-01T00:31:10.555Z,5.05
2022-10-01T00:33:38.646Z,5.00
2022-10-01T00:36:07.433Z,3.67
2022-10-01T00:38:34.850Z,5.05
2022-10-01T00:41:02.598Z,4.55
2022-10-01T00:43:35.822Z,4.45
2022-10-01T00:46:26.792Z,8.13
2022-10-01T00:49:02.737Z,5.30
2022-10-01T00:51:35.309Z,3.53
2022-10-01T00:54:08.548Z,5.00
2022-10-01T00:56:38.507Z,3.38
2022-10-01T00:59:06.415Z,7.55
2022-10-01T01:01:37.587Z,5.18
2022-10-01T01:04:16.209Z,6.53
2022-10-01T01:06:57.747Z,5.20
2022-10-01T01:09:31.268Z,3.63
2022-10-01T01:12:19.205Z,6.43
2022-10-01T01:14:59.522Z,7.65
2022-10-01T01:17:39.961Z,6.60
2022-10-01T01:20:42.333Z,5.53
2022-10-01T01:23:15.194Z,6.47
2022-10-01T01:25:59.333Z,5.00
2022-10-01T01:28:42.156Z,3.60
2022-10-01T01:31:14.691Z,4.38
2022-10-01T01:33:45.268Z,3.92
2022-10-01T01:36:17.697Z,6.80
2022-10-01T01:38:54.939Z,5.80
2022-10-01T01:41:25.626Z,4.18
2022-10-01T01:43:56.579Z,3.33
2022-10-01T01:46:31.678Z,4.03
2022-10-01T01:51:43.595Z,2.33
2022-10-01T01:54:10.489Z,5.45
2022-10-01T01:56:38.228Z,6.78
2022-10-01T01:59:05.572Z,5.97
2022-10-01T02:01:45.935Z,4.35
2022-10-01T02:04:22.050Z,4.32
2022-10-01T02:07:37.038Z,4.28
2022-10-01T02:10:23.021Z,5.30
2022-10-01T02:13:10.982Z,4.85
2022-10-01T02:15:46.119Z,8.00
2022-10-01T02:21:02.843Z,5.78
2022-10-01T02:23:34.673Z,3.13
2022-10-01T02:26:08.473Z,3.08
2022-10-01T02:28:38.658Z,5.20
2022-10-01T02:31:05.887Z,4.80
2022-10-01T02:33:36.365Z,4.07
2022-10-01T02:36:06.235Z,4.90
2022-10-01T02:38:35.265Z,5.50
2022-10-01T02:41:05.145Z,4.15
2022-10-01T02:43:42.784Z,5.38
2022-10-01T02:46:49.993Z,4.07
2022-10-01T02:49:16.900Z,5.07
2022-10-01T02:51:46.774Z,5.35
2022-10-01T02:54:27.018Z,4.70
2022-10-01T02:57:12.238Z,4.05
2022-10-01T02:59:39.171Z,2.78
2022-10-01T03:02:06.209Z,4.30
2022-10-01T03:04:33.106Z,4.32
2022-10-01T03:07:04.473Z,3.80
2022-10-01T03:09:32.303Z,4.72
2022-10-01T03:12:01.889Z,4.97
2022-10-01T03:14:29.240Z,4.75
2022-10-01T03:16:55.981Z,4.20
2022-10-01T03:19:22.986Z,5.95
2022-10-01T03:21:49.806Z,4.88
2022-10-01T03:24:16.629Z,6.85
2022-10-01T03:26:43.940Z,5.38
2022-10-01T03:29:11.258Z,4.93
2022-10-01T03:31:38.521Z,5.70
2022-10-01T03:34:05.498Z,4.45
2022-10-01T03:36:32.450Z,6.05
2022-10-01T03:38:59.289Z,7.22
2022-10-01T03:41:26.323Z,8.63
2022-10-01T03:43:57.077Z,8.70
2022-10-01T03:46:26.451Z,5.07
2022-10-01T03:48:53.232Z,7.15
2022-10-01T03:51:20.813Z,5.57
2022-10-01T03:53:47.991Z,7.07
2022-10-01T03:56:15.455Z,6.53
2022-10-01T03:58:42.534Z,6.22
2022-10-01T04:01:09.278Z,6.90
2022-10-01T04:03:36.781Z,5.93
2022-10-01T04:06:03.906Z,7.13
2022-10-01T04:08:30.740Z,5.72
2022-10-01T04:10:57.637Z,7.95
2022-10-01T04:13:24.353Z,6.57
2022-10-01T04:15:51.099Z,7.20
2022-10-01T04:18:20.690Z,7.75
2022-10-01T04:20:48.275Z,6.78
2022-10-01T04:23:15.636Z,10.00
2022-10-01T04:25:42.568Z,8.95
2022-10-01T04:28:12.655Z,9.85
2022-10-01T04:30:42.046Z,7.80
2022-10-01T04:33:14.511Z,7.95
2022-10-01T04:35:41.604Z,9.02
2022-10-01T04:38:14.415Z,8.15
2022-10-01T04:40:41.574Z,5.50
2022-10-01T04:43:09.659Z,5.10
2022-10-01T04:45:38.008Z,7.93
2022-10-01T04:48:05.261Z,6.43
2022-10-01T04:50:32.571Z,7.03
2022-10-01T04:52:59.688Z,18.85
2022-10-01T04:55:26.696Z,7.53
2022-10-01T04:57:53.764Z,10.40
2022-10-01T05:00:24.506Z,8.65
2022-10-01T05:02:51.627Z,9.27
2022-10-01T05:05:20.371Z,8.55
2022-10-01T05:07:48.049Z,8.30
2022-10-01T05:10:21.418Z,7.85
2022-10-01T05:12:49.206Z,8.48
2022-10-01T05:15:16.926Z,7.18
2022-10-01T05:17:44.095Z,5.88
2022-10-01T05:20:17.819Z,8.27
2022-10-01T05:22:45.823Z,9.52
2022-10-01T05:25:12.929Z,6.18
2022-10-01T05:27:41.220Z,13.00
2022-10-01T05:30:13.233Z,8.63
2022-10-01T05:32:40.308Z,9.43
2022-10-01T05:35:08.332Z,7.70
2022-10-01T05:37:35.769Z,7.05
2022-10-01T05:40:03.897Z,8.82
2022-10-01T05:42:30.650Z,10.18
2022-10-01T05:44:57.418Z,7.70
2022-10-01T05:47:24.203Z,9.93
2022-10-01T05:49:50.986Z,8.98
2022-10-01T05:52:17.745Z,9.75
2022-10-01T05:54:44.604Z,9.32
2022-10-01T05:57:11.450Z,6.70
2022-10-01T05:59:38.179Z,6.30
2022-10-01T06:02:05.091Z,9.00
2022-10-01T06:04:31.974Z,7.43
2022-10-01T06:06:59.048Z,8.15
2022-10-01T06:09:26.024Z,5.90
2022-10-01T06:11:52.907Z,7.35
2022-10-01T06:14:19.959Z,7.85
2022-10-01T06:16:47.766Z,8.23
2022-10-01T06:19:14.827Z,4.57
2022-10-01T06:21:41.611Z,6.65
2022-10-01T06:24:08.828Z,4.93
2022-10-01T06:26:39.419Z,6.45
2022-10-01T06:29:06.268Z,3.38
2022-10-01T06:31:33.491Z,5.68
2022-10-01T06:34:01.200Z,6.43
2022-10-01T06:36:28.146Z,4.68
2022-10-01T06:38:54.971Z,3.95
2022-10-01T06:41:21.765Z,5.18
2022-10-01T06:43:49.120Z,3.35
2022-10-01T06:46:15.994Z,4.35
2022-10-01T06:48:42.903Z,2.90
2022-10-01T06:51:09.738Z,4.38
2022-10-01T06:53:36.515Z,3.58
2022-10-01T06:56:07.807Z,2.75
2022-10-01T06:58:35.064Z,3.63
2022-10-01T07:01:03.854Z,2.85
2022-10-01T07:03:32.245Z,3.83
2022-10-01T07:06:04.429Z,2.40
2022-10-01T07:08:31.270Z,3.33
2022-10-01T07:11:02.743Z,3.70
2022-10-01T07:13:30.048Z,4.43
2022-10-01T07:15:57.161Z,2.90
2022-10-01T07:18:24.206Z,5.82
2022-10-01T07:20:51.474Z,2.90
2022-10-01T07:23:18.765Z,3.60
2022-10-01T07:25:46.030Z,4.30
2022-10-01T07:28:18.134Z,6.60
2022-10-01T07:31:01.972Z,2.63
2022-10-01T07:33:29.016Z,2.42
2022-10-01T07:35:56.065Z,2.70
2022-10-01T07:38:22.960Z,2.63
2022-10-01T07:40:54.075Z,3.33
2022-10-01T07:43:21.743Z,4.22
2022-10-01T07:45:50.261Z,1.90
2022-10-01T07:48:17.238Z,2.33
2022-10-01T07:50:48.281Z,4.93
2022-10-01T07:53:15.594Z,1.95
2022-10-01T07:55:43.890Z,2.92
2022-10-01T07:58:14.425Z,2.75
2022-10-01T08:00:41.295Z,3.35
2022-10-01T08:03:12.369Z,2.25
2022-10-01T08:05:41.432Z,2.05
2022-10-01T08:08:09.114Z,4.50
2022-10-01T08:10:38.068Z,2.45
2022-10-01T08:13:08.927Z,2.78
2022-10-01T08:15:36.243Z,4.97
2022-10-01T08:18:04.632Z,5.13
2022-10-01T08:20:33.079Z,2.92
2022-10-01T08:23:04.713Z,2.50
2022-10-01T08:25:31.931Z,3.50
2022-10-01T08:28:00.273Z,3.53
2022-10-01T08:30:28.238Z,4.13
2022-10-01T08:33:00.379Z,4.10
2022-10-01T08:35:28.407Z,4.53
2022-10-01T08:37:58.124Z,4.32
2022-10-01T08:40:25.053Z,3.72
2022-10-01T08:42:53.639Z,5.70
2022-10-01T08:45:43.226Z,3.53
2022-10-01T08:48:35.759Z,4.38
2022-10-01T08:51:11.885Z,6.13
2022-10-01T08:54:12.356Z,3.92
2022-10-01T08:56:46.331Z,6.85
2022-10-01T08:59:39.668Z,5.05
2022-10-01T09:02:33.898Z,4.57
2022-10-01T09:05:06.945Z,5.18
2022-10-01T09:08:16.173Z,4.85
2022-10-01T09:10:47.467Z,5.95
2022-10-01T09:13:17.478Z,4.15
2022-10-01T09:16:12.458Z,5.00
2022-10-01T09:18:54.052Z,6.43
2022-10-01T09:21:36.143Z,4.35
2022-10-01T09:24:22.578Z,4.43
2022-10-01T09:26:49.323Z,4.32
2022-10-01T09:29:27.174Z,6.95
2022-10-01T09:31:55.092Z,5.20
2022-10-01T09:34:37.480Z,5.82
2022-10-01T09:37:19.523Z,6.50
2022-10-01T09:40:15.796Z,6.20
2022-10-01T09:42:43.481Z,5.82
2022-10-01T09:45:18.697Z,5.57
2022-10-01T09:47:50.385Z,9.65
2022-10-01T09:50:23.512Z,8.10
2022-10-01T09:52:52.073Z,6.93
2022-10-01T09:55:34.158Z,5.10
2022-10-01T09:58:17.209Z,6.50
2022-10-01T10:00:44.371Z,6.82
2022-10-01T10:03:22.778Z,8.65
2022-10-01T10:05:50.978Z,5.97
2022-10-01T10:08:31.873Z,6.47
2022-10-01T10:11:01.699Z,7.55
2022-10-01T10:13:39.404Z,6.50
2022-10-01T10:16:29.163Z,6.18
2022-10-01T10:19:15.731Z,7.15
2022-10-01T10:22:24.891Z,6.93
2022-10-01T10:24:53.914Z,10.50
2022-10-01T10:27:30.812Z,7.55
2022-10-01T10:30:04.103Z,7.60
2022-10-01T10:32:32.991Z,8.85
2022-10-01T10:35:04.761Z,7.57
2022-10-01T10:37:36.267Z,9.77
2022-10-01T10:40:07.954Z,9.82
2022-10-01T10:42:38.904Z,10.23
2022-10-01T10:45:17.011Z,6.72
2022-10-01T10:47:47.205Z,6.38
2022-10-01T10:50:36.030Z,6.50
2022-10-01T10:53:22.720Z,7.53
2022-10-01T10:56:04.326Z,5.72
2022-10-01T10:58:33.499Z,6.60
2022-10-01T11:01:06.222Z,6.85
2022-10-01T11:03:36.295Z,10.88
2022-10-01T11:06:11.382Z,7.47
2022-10-01T11:11:36.358Z,4.65
2022-10-01T11:14:32.204Z,6.97
2022-10-01T11:17:44.163Z,11.07
2022-10-01T11:20:32.326Z,8.32
2022-10-01T11:23:01.898Z,5.97
2022-10-01T11:26:03.304Z,6.65
2022-10-01T11:29:02.145Z,5.20
2022-10-01T11:31:42.762Z,7.15
2022-10-01T11:34:12.641Z,3.90
2022-10-01T11:36:59.390Z,3.95
2022-10-01T11:39:30.031Z,8.20
2022-10-01T11:42:09.303Z,13.65
2022-10-01T11:45:02.406Z,5.20
2022-10-01T11:47:40.737Z,9.57
2022-10-01T11:50:16.667Z,4.97
2022-10-01T11:53:00.869Z,6.82
2022-10-01T11:56:02.719Z,5.20
2022-10-01T11:58:52.056Z,5.38
2022-10-01T12:01:27.934Z,4.00
2022-10-01T12:03:54.749Z,4.53
2022-10-01T12:06:33.987Z,6.85
2022-10-01T12:09:26.338Z,6.50
2022-10-01T12:12:06.016Z,5.43
2022-10-01T12:14:41.162Z,6.45
2022-10-01T12:19:59.680Z,4.70
2022-10-01T12:22:38.637Z,7.72
2022-10-01T12:25:12.221Z,6.13
2022-10-01T12:27:54.502Z,7.22
2022-10-01T12:30:31.951Z,4.55
2022-10-01T12:33:16.596Z,8.25
2022-10-01T12:36:09.445Z,10.00
2022-10-01T12:39:04.652Z,6.97
2022-10-01T12:41:39.914Z,8.02
2022-10-01T12:44:19.239Z,6.78
2022-10-01T12:47:04.471Z,7.10
2022-10-01T12:49:33.929Z,11.55
2022-10-01T12:52:35.810Z,5.43
2022-10-01T12:55:35.358Z,7.03
2022-10-01T12:58:29.683Z,8.20
2022-10-01T13:01:22.636Z,6.63
2022-10-01T13:04:23.915Z,6.30
2022-10-01T13:07:03.610Z,6.03
2022-10-01T13:09:57.866Z,4.35
2022-10-01T13:12:43.192Z,3.75
2022-10-01T13:15:31.756Z,3.95
2022-10-01T13:18:03.201Z,6.25
2022-10-01T13:20:41.109Z,9.95
2022-10-01T13:23:23.217Z,7.70
2022-10-01T13:26:41.213Z,5.53
2022-10-01T13:29:45.567Z,5.28
2022-10-01T13:32:30.891Z,2.85
2022-10-01T13:34:59.367Z,4.15
2022-10-01T13:37:38.759Z,2.83
2022-10-01T13:40:25.959Z,2.67
2022-10-01T13:43:08.925Z,4.18
2022-10-01T13:45:39.065Z,8.32
2022-10-01T13:48:11.838Z,5.00
2022-10-01T13:50:40.431Z,3.92
2022-10-01T13:53:20.805Z,3.47
2022-10-01T13:55:49.029Z,2.05
2022-10-01T13:58:31.009Z,3.55
2022-10-01T14:01:01.538Z,4.97
2022-10-01T14:03:34.669Z,5.13
2022-10-01T14:06:05.285Z,4.95
2022-10-01T14:08:40.837Z,9.90
2022-10-01T14:11:34.718Z,3.25
2022-10-01T14:14:40.182Z,6.32
2022-10-01T14:17:09.092Z,3.03
2022-10-01T14:19:36.060Z,4.55
2022-10-01T14:22:40.238Z,3.50
2022-10-01T14:25:12.840Z,4.00
2022-10-01T14:27:47.771Z,5.28
2022-10-01T14:30:20.954Z,9.05
2022-10-01T14:33:14.428Z,5.72
2022-10-01T14:36:04.772Z,5.40
2022-10-01T14:38:31.919Z,4.95
2022-10-01T14:40:58.706Z,3.92
2022-10-01T14:43:30.939Z,7.75
2022-10-01T14:46:06.365Z,5.68
2022-10-01T14:48:36.642Z,6.88
2022-10-01T14:51:06.695Z,5.00
2022-10-01T14:53:42.018Z,6.60
2022-10-01T14:56:14.186Z,7.50
2022-10-01T14:58:47.663Z,6.88
2022-10-01T15:01:20.062Z,9.48
2022-10-01T15:03:48.094Z,8.65
2022-10-01T15:06:18.291Z,12.52
2022-10-01T15:08:49.978Z,10.30
2022-10-01T15:11:26.201Z,7.28
2022-10-01T15:14:02.790Z,6.25
2022-10-01T15:16:30.247Z,8.38
2022-10-01T15:19:15.638Z,5.70
2022-10-01T15:21:47.711Z,7.40
2022-10-01T15:24:26.022Z,6.53
2022-10-01T15:26:54.797Z,10.98
2022-10-01T15:29:21.776Z,5.57
2022-10-01T15:31:51.053Z,6.68
2022-10-01T15:34:20.985Z,6.35
2022-10-01T15:36:49.587Z,5.40
2022-10-01T15:39:22.232Z,10.73
2022-10-01T15:41:53.473Z,7.03
2022-10-01T15:44:45.697Z,7.60
2022-10-01T15:47:52.677Z,8.52
2022-10-01T15:50:22.783Z,6.75
2022-10-01T15:53:06.919Z,9.02
2022-10-01T15:55:48.748Z,8.90
2022-10-01T15:58:35.629Z,10.80
2022-10-01T16:01:09.455Z,10.43
2022-10-01T16:03:48.181Z,8.63
2022-10-01T16:06:34.277Z,7.68
2022-10-01T16:09:24.555Z,9.52
2022-10-01T16:12:06.816Z,11.38
2022-10-01T16:14:45.844Z,10.18
2022-10-01T16:17:19.077Z,9.30
2022-10-01T16:19:48.290Z,11.98
2022-10-01T16:22:19.283Z,15.02
2022-10-01T16:24:50.797Z,10.77
2022-10-01T16:27:20.324Z,18.90
2022-10-01T16:29:53.908Z,13.05
2022-10-01T16:32:21.022Z,15.48
2022-10-01T16:34:48.077Z,10.38
2022-10-01T16:37:15.152Z,9.82
2022-10-01T16:39:42.237Z,15.65
2022-10-01T16:42:24.276Z,11.35
2022-10-01T16:44:51.938Z,9.27
2022-10-01T16:47:18.964Z,15.73
2022-10-01T16:49:47.953Z,7.13
2022-10-01T16:52:16.671Z,11.02
2022-10-01T16:54:44.455Z,12.82
2022-10-01T16:57:11.454Z,5.22
2022-10-01T16:59:38.229Z,7.60
2022-10-01T17:02:05.201Z,5.20
2022-10-01T17:04:34.105Z,8.40
2022-10-01T17:07:01.481Z,6.70
2022-10-01T17:09:28.315Z,7.20
2022-10-01T17:11:55.747Z,6.57
2022-10-01T17:14:23.492Z,9.63
2022-10-01T17:16:50.886Z,8.43
2022-10-01T17:19:18.446Z,8.15
2022-10-01T17:21:45.669Z,7.75
2022-10-01T17:24:13.110Z,5.28
2022-10-01T17:26:41.905Z,7.90
2022-10-01T17:29:09.914Z,13.35
2022-10-01T17:31:50.518Z,15.45
2022-10-01T17:34:17.399Z,17.63
2022-10-01T17:36:45.692Z,26.00
2022-10-01T17:39:12.584Z,28.73
2022-10-01T17:41:39.540Z,13.18
2022-10-01T17:44:06.268Z,13.70
2022-10-01T17:46:33.415Z,13.32
2022-10-01T17:49:00.271Z,15.55
2022-10-01T17:54:03.350Z,12.27
2022-10-01T17:59:11.885Z,12.30
2022-10-01T18:01:41.545Z,18.60
2022-10-01T18:04:12.380Z,12.73
2022-10-01T18:06:39.797Z,19.42
2022-10-01T18:09:06.861Z,19.77
2022-10-01T18:11:33.883Z,15.00
2022-10-01T18:14:00.744Z,14.45
2022-10-01T18:16:36.142Z,15.15
2022-10-01T18:21:51.170Z,13.30
2022-10-01T18:24:18.130Z,12.05
2022-10-01T18:26:46.452Z,16.95
2022-10-01T18:29:19.444Z,10.82
2022-10-01T18:31:50.511Z,16.83
2022-10-01T18:34:45.128Z,27.67
2022-10-01T18:37:37.750Z,19.30
2022-10-01T18:40:18.388Z,16.02
2022-10-01T18:43:14.230Z,21.08
2022-10-01T18:46:13.380Z,27.40
2022-10-01T18:48:58.456Z,20.77
2022-10-01T18:51:31.447Z,35.83
2022-10-01T18:54:22.720Z,30.27
2022-10-01T18:57:28.162Z,24.27
2022-10-01T19:00:31.834Z,27.60
2022-10-01T19:03:09.775Z,18.65
2022-10-01T19:05:55.592Z,14.52
2022-10-01T19:08:38.368Z,18.60
2022-10-01T19:11:23.789Z,9.50
2022-10-01T19:14:28.360Z,10.25
2022-10-01T19:17:04.571Z,14.13
2022-10-01T19:19:47.576Z,10.65
2022-10-01T19:22:23.947Z,12.80
2022-10-01T19:25:08.819Z,16.30
2022-10-01T19:27:44.602Z,10.27
2022-10-01T19:30:19.777Z,10.05
2022-10-01T19:35:20.973Z,10.48
2022-10-01T19:37:51.074Z,10.35
2022-10-01T19:40:29.025Z,21.70
2022-10-01T19:43:02.788Z,11.98
2022-10-01T19:45:39.977Z,10.85
2022-10-01T19:48:19.877Z,10.32
2022-10-01T19:50:53.904Z,15.63
2022-10-01T19:53:33.900Z,10.73
2022-10-01T19:56:02.297Z,13.00
2022-10-01T19:58:33.625Z,12.88
2022-10-01T20:01:03.112Z,17.30
2022-10-01T20:03:42.523Z,14.25
2022-10-01T20:06:09.243Z,12.65
2022-10-01T20:09:12.910Z,13.18
2022-10-01T20:12:12.233Z,11.43
2022-10-01T20:15:06.840Z,11.27
2022-10-01T20:18:31.111Z,18.30
2022-10-01T20:21:12.573Z,13.48
2022-10-01T20:24:03.404Z,13.57
2022-10-01T20:26:40.121Z,14.90
2022-10-01T20:29:38.135Z,15.40
2022-10-01T20:32:25.923Z,8.93
2022-10-01T20:35:13.778Z,16.83
2022-10-01T20:37:50.001Z,15.80
2022-10-01T20:40:52.596Z,20.38
2022-10-01T20:43:37.435Z,16.48
2022-10-01T20:46:14.353Z,17.77
2022-10-01T20:48:49.561Z,19.15
2022-10-01T20:51:24.304Z,17.63
2022-10-01T20:54:14.924Z,15.82
2022-10-01T20:56:54.928Z,17.40
2022-10-01T20:59:30.034Z,13.50
2022-10-01T21:04:40.722Z,16.08
2022-10-01T21:07:42.568Z,17.48
2022-10-01T21:10:38.865Z,13.88
2022-10-01T21:16:02.680Z,18.77
2022-10-01T21:18:38.741Z,21.02
2022-10-01T21:21:26.914Z,17.15
2022-10-01T21:24:16.135Z,19.83
2022-10-01T21:27:14.669Z,14.52
2022-10-01T21:30:15.410Z,15.45
2022-10-01T21:33:17.607Z,15.88
2022-10-01T21:36:02.134Z,21.42
2022-10-01T21:38:44.701Z,14.27
2022-10-01T21:41:13.771Z,22.55
2022-10-01T21:44:12.206Z,20.70
2022-10-01T21:46:43.714Z,15.23
2022-10-01T21:49:37.171Z,19.30
2022-10-01T21:52:27.089Z,12.18
2022-10-01T21:55:34.889Z,17.92
2022-10-01T21:58:07.575Z,14.88
2022-10-01T22:00:34.643Z,16.40
2022-10-01T22:03:20.057Z,20.05
2022-10-01T22:05:56.292Z,18.73
2022-10-01T22:08:38.281Z,17.88
2022-10-01T22:11:12.257Z,11.85
2022-10-01T22:13:51.289Z,17.00
2022-10-01T22:16:20.215Z,20.20
2022-10-01T22:18:51.153Z,14.63
2022-10-01T22:21:34.804Z,19.38
2022-10-01T22:24:19.255Z,15.10
2022-10-01T22:26:54.373Z,15.05
2022-10-01T22:31:58.209Z,16.95
2022-10-01T22:34:34.367Z,12.85
2022-10-01T22:37:05.851Z,15.23
2022-10-01T22:39:53.293Z,16.35
2022-10-01T22:42:31.985Z,16.52
2022-10-01T22:45:15.873Z,16.40
2022-10-01T22:48:01.698Z,17.63
2022-10-01T22:50:38.164Z,13.35
2022-10-01T22:53:26.966Z,9.40
2022-10-01T22:55:59.198Z,9.00
2022-10-01T22:58:48.915Z,15.25
2022-10-01T23:01:25.579Z,12.65
2022-10-01T23:04:01.560Z,15.82
2022-10-01T23:07:06.366Z,15.60
2022-10-01T23:10:01.659Z,12.63
2022-10-01T23:12:46.245Z,12.57
2022-10-01T23:15:31.287Z,11.98
2022-10-01T23:18:01.158Z,9.85
2022-10-01T23:20:41.948Z,11.50
2022-10-01T23:23:34.007Z,8.98
2022-10-01T23:26:17.231Z,7.63
2022-10-01T23:29:17.807Z,15.52
2022-10-01T23:31:51.663Z,18.65
2022-10-01T23:34:46.778Z,13.48
2022-10-01T23:37:23.256Z,9.93
2022-10-01T23:40:03.002Z,9.05
2022-10-01T23:42:44.413Z,8.30
2022-10-01T23:45:36.279Z,13.10
2022-10-01T23:48:58.338Z,10.38
2022-10-01T23:51:32.992Z,19.13
2022-10-01T23:54:23.557Z,11.27
2022-10-01T23:57:06.407Z,11.98
